createdAt,value
2019-03-08T00:01:08.180Z,2.90
2019-03-08T00:03:36.982Z,2.65
2019-03-08T00:06:05.067Z,1.92
2019-03-08T00:08:32.835Z,1.90
2019-03-08T00:11:00.795Z,1.83
2019-03-08T00:13:28.855Z,1.65
2019-03-08T00:15:57.506Z,2.37
2019-03-08T00:18:26.631Z,2.12
2019-03-08T00:20:54.706Z,2.37
2019-03-08T00:23:22.773Z,2.40
2019-03-08T00:25:51.147Z,1.80
2019-03-08T00:28:19.200Z,2.58
2019-03-08T00:30:47.314Z,1.92
2019-03-08T00:33:15.905Z,2.75
2019-03-08T00:35:44.283Z,2.70
2019-03-08T00:38:12.440Z,3.12
2019-03-08T00:40:41.042Z,2.55
2019-03-08T00:43:09.196Z,2.67
2019-03-08T00:45:37.247Z,2.67
2019-03-08T00:48:05.218Z,2.37
2019-03-08T00:50:33.290Z,2.83
2019-03-08T00:53:01.466Z,2.90
2019-03-08T00:55:30.181Z,3.37
2019-03-08T00:57:58.361Z,2.83
2019-03-08T01:00:26.492Z,3.50
2019-03-08T01:02:54.614Z,3.85
2019-03-08T01:05:23.328Z,3.47
2019-03-08T01:07:51.539Z,3.33
2019-03-08T01:10:19.328Z,3.65
2019-03-08T01:12:47.060Z,2.42
2019-03-08T01:15:15.663Z,3.42
2019-03-08T01:17:44.513Z,3.42
2019-03-08T01:20:13.221Z,2.87
2019-03-08T01:22:41.088Z,3.42
2019-03-08T01:25:10.203Z,2.78
2019-03-08T01:27:38.460Z,2.10
2019-03-08T01:30:08.153Z,2.42
2019-03-08T01:32:36.462Z,2.95
2019-03-08T01:35:04.630Z,2.40
2019-03-08T01:37:33.203Z,2.50
2019-03-08T01:40:01.803Z,2.35
2019-03-08T01:42:29.831Z,2.70
2019-03-08T01:44:57.923Z,2.70
2019-03-08T01:47:26.019Z,3.15
2019-03-08T01:49:53.881Z,3.10
2019-03-08T01:52:21.727Z,2.47
2019-03-08T01:54:49.695Z,2.53
2019-03-08T01:57:18.385Z,2.92
2019-03-08T01:59:46.488Z,2.92
2019-03-08T02:02:14.623Z,2.00
2019-03-08T02:04:42.488Z,2.60
2019-03-08T02:07:10.585Z,3.22
2019-03-08T02:09:38.902Z,3.03
2019-03-08T02:12:07.898Z,4.10
2019-03-08T02:14:35.497Z,3.00
2019-03-08T02:17:04.776Z,3.15
2019-03-08T02:19:34.098Z,2.78
2019-03-08T02:22:03.754Z,3.20
2019-03-08T02:24:31.989Z,2.85
2019-03-08T02:27:00.561Z,3.50
2019-03-08T02:29:28.405Z,2.35
2019-03-08T02:31:56.487Z,3.08
2019-03-08T02:34:24.589Z,3.60
2019-03-08T02:36:52.080Z,3.83
2019-03-08T02:39:20.707Z,3.20
2019-03-08T02:41:48.774Z,3.47
2019-03-08T02:44:16.846Z,3.28
2019-03-08T02:46:44.977Z,4.03
2019-03-08T02:49:13.126Z,3.67
2019-03-08T02:51:41.271Z,3.20
2019-03-08T02:54:10.424Z,3.97
2019-03-08T02:56:38.633Z,3.70
2019-03-08T02:59:06.811Z,4.28
2019-03-08T03:01:34.976Z,4.62
2019-03-08T03:04:03.657Z,4.10
2019-03-08T03:06:31.757Z,4.20
2019-03-08T03:09:00.615Z,4.57
2019-03-08T03:11:28.680Z,4.70
2019-03-08T03:13:56.812Z,4.60
2019-03-08T03:16:25.863Z,4.78
2019-03-08T03:18:53.942Z,5.35
2019-03-08T03:21:22.005Z,3.53
2019-03-08T03:23:50.105Z,4.87
2019-03-08T03:26:18.379Z,3.40
2019-03-08T03:28:46.434Z,4.32
2019-03-08T03:31:14.392Z,4.37
2019-03-08T03:33:42.479Z,4.00
2019-03-08T03:36:10.539Z,4.43
2019-03-08T03:38:38.948Z,4.18
2019-03-08T03:41:07.804Z,3.33
2019-03-08T03:43:35.941Z,4.90
2019-03-08T03:46:03.942Z,5.03
2019-03-08T03:48:32.014Z,5.05
2019-03-08T03:51:00.570Z,4.95
2019-03-08T03:53:29.079Z,4.80
2019-03-08T03:55:56.963Z,4.18
2019-03-08T03:58:25.131Z,4.53
2019-03-08T04:00:53.220Z,4.28
2019-03-08T04:03:21.283Z,4.18
2019-03-08T04:05:49.054Z,4.65
2019-03-08T04:08:17.226Z,4.32
2019-03-08T04:10:45.270Z,4.35
2019-03-08T04:13:13.074Z,4.68
2019-03-08T04:15:41.225Z,5.57
2019-03-08T04:18:09.388Z,4.07
2019-03-08T04:20:37.427Z,4.47
2019-03-08T04:23:05.223Z,5.62
2019-03-08T04:25:33.357Z,4.20
2019-03-08T04:28:01.480Z,4.72
2019-03-08T04:30:29.263Z,5.43
2019-03-08T04:32:57.441Z,4.82
2019-03-08T04:35:25.329Z,4.07
2019-03-08T04:37:53.565Z,5.25
2019-03-08T04:40:21.315Z,4.35
2019-03-08T04:42:50.110Z,4.97
2019-03-08T04:45:18.364Z,4.85
2019-03-08T04:47:46.468Z,6.15
2019-03-08T04:50:14.635Z,5.50
2019-03-08T04:52:42.880Z,6.40
2019-03-08T04:55:12.043Z,5.15
2019-03-08T04:57:40.145Z,5.18
2019-03-08T05:00:09.700Z,5.00
2019-03-08T05:02:38.020Z,5.28
2019-03-08T05:05:06.624Z,5.65
2019-03-08T05:07:34.492Z,4.20
2019-03-08T05:10:04.692Z,4.35
2019-03-08T05:12:33.596Z,5.10
2019-03-08T05:15:02.868Z,5.43
2019-03-08T05:17:30.631Z,5.47
2019-03-08T05:19:58.148Z,5.28
2019-03-08T05:22:27.192Z,5.25
2019-03-08T05:24:55.275Z,4.70
2019-03-08T05:27:23.275Z,5.15
2019-03-08T05:29:51.867Z,4.68
2019-03-08T05:32:20.112Z,5.40
2019-03-08T05:34:48.217Z,5.07
2019-03-08T05:37:16.690Z,4.95
2019-03-08T05:39:44.228Z,5.78
2019-03-08T05:42:12.301Z,5.15
2019-03-08T05:44:41.195Z,5.93
2019-03-08T05:47:09.250Z,5.40
2019-03-08T05:49:37.504Z,5.85
2019-03-08T05:52:05.625Z,5.93
2019-03-08T05:54:33.477Z,5.03
2019-03-08T05:57:01.554Z,4.85
2019-03-08T05:59:29.708Z,4.60
2019-03-08T06:01:57.796Z,4.57
2019-03-08T06:04:25.857Z,6.07
2019-03-08T06:06:54.662Z,5.12
2019-03-08T06:09:22.701Z,3.80
2019-03-08T06:11:50.825Z,4.05
2019-03-08T06:14:18.885Z,3.80
2019-03-08T06:16:47.409Z,4.55
2019-03-08T06:19:15.207Z,5.60
2019-03-08T06:21:43.289Z,5.68
2019-03-08T06:24:11.173Z,5.95
2019-03-08T06:26:39.329Z,4.18
2019-03-08T06:29:07.287Z,5.32
2019-03-08T06:31:35.334Z,5.12
2019-03-08T06:34:03.445Z,4.93
2019-03-08T06:36:31.595Z,4.25
2019-03-08T06:38:59.772Z,5.68
2019-03-08T06:41:27.946Z,5.60
2019-03-08T06:43:57.332Z,5.05
2019-03-08T06:46:25.660Z,5.78
2019-03-08T06:48:53.800Z,5.12
2019-03-08T06:51:22.092Z,5.07
2019-03-08T06:53:49.854Z,4.07
2019-03-08T06:56:17.996Z,4.78
2019-03-08T06:58:50.707Z,4.28
2019-03-08T07:01:25.367Z,5.32
2019-03-08T07:03:53.513Z,5.10
2019-03-08T07:06:21.593Z,4.40
2019-03-08T07:08:49.740Z,4.22
2019-03-08T07:11:17.512Z,3.87
2019-03-08T07:13:45.789Z,4.00
2019-03-08T07:16:13.968Z,3.80
2019-03-08T07:18:47.798Z,4.32
2019-03-08T07:21:34.554Z,4.47
2019-03-08T07:24:21.878Z,4.18
2019-03-08T07:27:15.677Z,3.35
2019-03-08T07:30:01.680Z,3.22
2019-03-08T07:32:53.883Z,3.58
2019-03-08T07:35:44.172Z,2.58
2019-03-08T07:38:29.863Z,2.95
2019-03-08T07:41:22.729Z,3.78
2019-03-08T07:44:12.800Z,4.15
2019-03-08T07:47:08.931Z,3.22
2019-03-08T07:49:55.842Z,4.25
2019-03-08T07:52:34.761Z,4.15
2019-03-08T07:55:34.214Z,3.80
2019-03-08T07:58:21.402Z,3.97
2019-03-08T08:01:24.097Z,3.87
2019-03-08T08:03:58.979Z,3.62
2019-03-08T08:06:40.701Z,3.30
2019-03-08T08:09:31.731Z,3.40
2019-03-08T08:12:21.729Z,2.85
2019-03-08T08:15:09.044Z,2.58
2019-03-08T08:18:08.105Z,3.20
2019-03-08T08:20:46.515Z,2.75
2019-03-08T08:23:34.372Z,2.30
2019-03-08T08:26:19.354Z,2.87
2019-03-08T08:28:55.973Z,1.87
2019-03-08T08:31:43.721Z,2.80
2019-03-08T08:34:23.168Z,2.22
2019-03-08T08:37:25.360Z,2.25
2019-03-08T08:40:09.040Z,3.00
2019-03-08T08:42:43.358Z,2.87
2019-03-08T08:45:29.501Z,3.05
2019-03-08T08:48:18.441Z,2.80
2019-03-08T08:50:55.814Z,2.22
2019-03-08T08:53:42.345Z,2.10
2019-03-08T08:56:28.867Z,2.50
2019-03-08T08:59:11.743Z,2.37
2019-03-08T09:02:02.388Z,2.15
2019-03-08T09:04:51.933Z,1.90
2019-03-08T09:07:37.843Z,2.72
2019-03-08T09:10:14.516Z,2.25
2019-03-08T09:12:52.160Z,2.17
2019-03-08T09:15:24.689Z,3.00
2019-03-08T09:18:17.462Z,3.25
2019-03-08T09:21:03.510Z,2.92
2019-03-08T09:23:53.908Z,3.67
2019-03-08T09:26:47.877Z,3.05
2019-03-08T09:29:29.548Z,3.22
2019-03-08T09:32:25.617Z,3.50
2019-03-08T09:35:22.146Z,3.00
2019-03-08T09:38:04.769Z,3.40
2019-03-08T09:40:50.759Z,3.15
2019-03-08T09:43:38.066Z,3.03
2019-03-08T09:46:16.233Z,2.92
2019-03-08T09:49:09.450Z,2.47
2019-03-08T09:51:58.417Z,3.08
2019-03-08T09:54:45.511Z,3.00
2019-03-08T09:57:30.510Z,2.90
2019-03-08T10:00:25.172Z,3.33
2019-03-08T10:03:05.857Z,3.95
2019-03-08T10:05:55.836Z,3.17
2019-03-08T10:08:51.852Z,3.25
2019-03-08T10:11:44.909Z,3.30
2019-03-08T10:14:20.139Z,3.10
2019-03-08T10:16:56.838Z,3.92
2019-03-08T10:19:50.393Z,3.33
2019-03-08T10:22:46.208Z,3.12
2019-03-08T10:25:39.289Z,3.22
2019-03-08T10:28:19.076Z,3.37
2019-03-08T10:30:55.060Z,3.15
2019-03-08T10:33:47.923Z,3.12
2019-03-08T10:36:34.228Z,3.25
2019-03-08T10:39:09.646Z,3.03
2019-03-08T10:41:54.954Z,3.75
2019-03-08T10:44:57.421Z,3.28
2019-03-08T10:47:59.694Z,2.80
2019-03-08T10:50:35.628Z,2.67
2019-03-08T10:53:13.335Z,3.35
2019-03-08T10:55:52.872Z,3.22
2019-03-08T10:58:45.318Z,2.70
2019-03-08T11:01:47.386Z,4.32
2019-03-08T11:04:32.581Z,2.50
2019-03-08T11:07:16.215Z,2.67
2019-03-08T11:10:04.035Z,3.42
2019-03-08T11:12:40.936Z,3.20
2019-03-08T11:15:43.798Z,3.17
2019-03-08T11:18:30.504Z,2.87
2019-03-08T11:21:10.055Z,3.60
2019-03-08T11:23:47.967Z,3.05
2019-03-08T11:26:35.166Z,4.12
2019-03-08T11:29:18.681Z,3.22
2019-03-08T11:32:09.092Z,3.25
2019-03-08T11:35:05.173Z,3.47
2019-03-08T11:37:43.531Z,3.37
2019-03-08T11:40:29.335Z,3.70
2019-03-08T11:43:15.640Z,3.92
2019-03-08T11:46:00.784Z,3.75
2019-03-08T11:49:03.481Z,2.58
2019-03-08T11:51:50.161Z,3.60
2019-03-08T11:54:40.611Z,3.10
2019-03-08T11:57:16.703Z,3.17
2019-03-08T12:00:09.607Z,2.95
2019-03-08T12:03:08.894Z,2.47
2019-03-08T12:05:49.942Z,2.60
2019-03-08T12:08:36.176Z,2.42
2019-03-08T12:11:23.380Z,3.25
2019-03-08T12:14:13.158Z,3.50
2019-03-08T12:16:50.873Z,2.40
2019-03-08T12:19:40.660Z,2.62
2019-03-08T12:22:16.904Z,2.75
2019-03-08T12:25:09.598Z,2.60
2019-03-08T12:28:09.177Z,2.10
2019-03-08T12:30:59.148Z,2.50
2019-03-08T12:33:48.127Z,2.58
2019-03-08T12:36:37.687Z,2.45
2019-03-08T12:39:19.569Z,2.47
2019-03-08T12:41:54.196Z,2.20
2019-03-08T12:44:33.737Z,2.03
2019-03-08T12:47:19.934Z,1.92
2019-03-08T12:50:06.845Z,2.22
2019-03-08T12:52:45.470Z,3.05
2019-03-08T12:55:24.596Z,2.78
2019-03-08T12:58:04.633Z,3.00
2019-03-08T13:00:48.591Z,2.47
2019-03-08T13:03:48.114Z,2.35
2019-03-08T13:06:35.322Z,2.00
2019-03-08T13:09:25.408Z,2.05
2019-03-08T13:11:54.333Z,2.37
2019-03-08T13:14:22.370Z,2.37
2019-03-08T13:16:50.440Z,1.90
2019-03-08T13:19:18.783Z,2.33
2019-03-08T13:21:46.916Z,1.80
2019-03-08T13:24:15.058Z,2.62
2019-03-08T13:26:43.359Z,3.12
2019-03-08T13:29:11.799Z,2.00
2019-03-08T13:31:39.935Z,2.30
2019-03-08T13:34:08.068Z,2.00
2019-03-08T13:36:35.834Z,2.50
2019-03-08T13:39:04.516Z,3.55
2019-03-08T13:41:33.405Z,2.83
2019-03-08T13:44:01.424Z,2.80
2019-03-08T13:46:29.139Z,2.97
2019-03-08T13:48:58.872Z,1.77
2019-03-08T13:51:26.973Z,2.40
2019-03-08T13:53:55.738Z,1.52
2019-03-08T13:56:24.111Z,2.10
2019-03-08T13:58:52.673Z,1.60
2019-03-08T14:01:21.432Z,2.10
2019-03-08T14:03:49.889Z,1.75
2019-03-08T14:06:18.520Z,1.67
2019-03-08T14:08:47.087Z,2.20
2019-03-08T14:11:15.169Z,1.73
2019-03-08T14:13:42.950Z,2.10
2019-03-08T14:16:11.008Z,1.95
2019-03-08T14:18:39.515Z,2.12
2019-03-08T14:21:07.584Z,1.98
2019-03-08T14:23:35.634Z,2.45
2019-03-08T14:26:04.495Z,2.10
2019-03-08T14:28:32.400Z,2.15
2019-03-08T14:31:04.981Z,1.62
2019-03-08T14:33:34.275Z,2.17
2019-03-08T14:36:02.912Z,1.87
2019-03-08T14:38:36.756Z,1.95
2019-03-08T14:41:10.640Z,1.70
2019-03-08T14:43:45.077Z,2.00
2019-03-08T14:46:28.203Z,2.10
2019-03-08T14:48:56.285Z,2.60
2019-03-08T14:51:24.349Z,2.30
2019-03-08T14:53:52.421Z,2.47
2019-03-08T14:56:20.625Z,2.40
2019-03-08T14:58:49.158Z,2.53
2019-03-08T15:01:17.240Z,3.80
2019-03-08T15:03:45.330Z,2.00
2019-03-08T15:06:13.427Z,2.10
2019-03-08T15:08:41.493Z,2.00
2019-03-08T15:11:09.528Z,1.42
2019-03-08T15:13:37.587Z,2.20
2019-03-08T15:16:05.706Z,2.62
2019-03-08T15:18:33.660Z,1.75
2019-03-08T15:21:01.137Z,2.37
2019-03-08T15:23:29.155Z,3.20
2019-03-08T15:25:57.742Z,4.15
2019-03-08T15:28:26.468Z,4.37
2019-03-08T15:30:54.491Z,4.00
2019-03-08T15:33:22.276Z,2.55
2019-03-08T15:35:50.854Z,2.22
2019-03-08T15:38:18.638Z,2.22
2019-03-08T15:40:48.779Z,3.33
2019-03-08T15:43:14.942Z,2.58
2019-03-08T15:45:44.467Z,3.45
2019-03-08T15:48:14.473Z,3.78
2019-03-08T15:50:42.705Z,3.25
2019-03-08T15:53:07.253Z,2.90
2019-03-08T15:55:36.358Z,3.45
2019-03-08T15:58:04.235Z,2.80
2019-03-08T16:00:32.717Z,2.92
2019-03-08T16:03:00.665Z,3.55
2019-03-08T16:05:30.114Z,3.33
2019-03-08T16:07:57.792Z,4.07
2019-03-08T16:10:25.355Z,4.28
2019-03-08T16:12:53.461Z,2.97
2019-03-08T16:15:22.039Z,3.22
2019-03-08T16:17:51.122Z,2.97
2019-03-08T16:20:19.203Z,3.42
2019-03-08T16:22:47.869Z,3.03
2019-03-08T16:25:16.284Z,2.33
2019-03-08T16:27:44.356Z,2.65
2019-03-08T16:30:16.839Z,2.22
2019-03-08T16:33:01.394Z,2.58
2019-03-08T16:35:36.721Z,2.28
2019-03-08T16:38:15.730Z,2.28
2019-03-08T16:41:01.084Z,1.85
2019-03-08T16:44:06.895Z,2.27
2019-03-08T16:46:50.499Z,2.37
2019-03-08T16:49:43.586Z,2.35
2019-03-08T16:52:33.670Z,2.80
2019-03-08T16:55:21.683Z,3.35
2019-03-08T16:58:03.077Z,2.10
2019-03-08T17:01:02.578Z,2.30
2019-03-08T17:03:43.552Z,2.53
2019-03-08T17:06:29.409Z,3.10
2019-03-08T17:09:15.842Z,3.22
2019-03-08T17:11:54.261Z,3.72
2019-03-08T17:14:47.537Z,4.40
2019-03-08T17:17:47.039Z,3.85
2019-03-08T17:20:29.833Z,3.30
2019-03-08T17:23:19.834Z,3.78
2019-03-08T17:26:25.556Z,3.05
2019-03-08T17:29:06.057Z,2.22
2019-03-08T17:31:48.587Z,2.62
2019-03-08T17:34:41.530Z,3.45
2019-03-08T17:37:30.024Z,4.32
2019-03-08T17:40:13.090Z,3.87
2019-03-08T17:42:56.953Z,3.87
2019-03-08T17:45:49.562Z,2.97
2019-03-08T17:48:30.975Z,3.53
2019-03-08T17:51:17.346Z,6.65
2019-03-08T17:53:56.770Z,6.68
2019-03-08T17:56:59.005Z,5.55
2019-03-08T17:59:46.991Z,3.00
2019-03-08T18:02:46.310Z,3.58
2019-03-08T18:05:25.969Z,3.45
2019-03-08T18:08:16.744Z,3.50
2019-03-08T18:11:09.834Z,3.95
2019-03-08T18:13:48.614Z,4.10
2019-03-08T18:16:24.675Z,4.35
2019-03-08T18:19:14.801Z,3.72
2019-03-08T18:22:01.794Z,3.50
2019-03-08T18:24:47.585Z,3.90
2019-03-08T18:27:33.107Z,3.25
2019-03-08T18:30:23.571Z,3.17
2019-03-08T18:33:13.457Z,3.80
2019-03-08T18:35:59.443Z,3.50
2019-03-08T18:38:45.120Z,4.35
2019-03-08T18:41:35.008Z,4.82
2019-03-08T18:44:11.397Z,3.75
2019-03-08T18:46:58.062Z,3.97
2019-03-08T18:49:48.536Z,4.87
2019-03-08T18:52:26.688Z,3.80
2019-03-08T18:55:05.608Z,3.95
2019-03-08T18:58:01.838Z,3.97
2019-03-08T19:00:49.365Z,4.37
2019-03-08T19:03:42.126Z,4.97
2019-03-08T19:06:32.919Z,4.95
2019-03-08T19:09:16.336Z,4.18
2019-03-08T19:12:01.392Z,4.32
2019-03-08T19:14:53.850Z,4.37
2019-03-08T19:17:41.451Z,3.50
2019-03-08T19:20:21.253Z,2.90
2019-03-08T19:23:08.561Z,2.65
2019-03-08T19:26:10.737Z,2.60
2019-03-08T19:28:53.851Z,3.03
2019-03-08T19:31:41.079Z,3.03
2019-03-08T19:34:34.013Z,3.10
2019-03-08T19:37:21.357Z,3.20
2019-03-08T19:40:06.520Z,2.50
2019-03-08T19:42:49.931Z,2.95
2019-03-08T19:45:35.741Z,3.78
2019-03-08T19:48:35.246Z,3.90
2019-03-08T19:51:21.243Z,3.28
2019-03-08T19:54:09.231Z,2.80
2019-03-08T19:56:43.802Z,3.17
2019-03-08T19:59:21.179Z,2.95
2019-03-08T20:01:57.860Z,2.90
2019-03-08T20:04:47.625Z,2.47
2019-03-08T20:07:33.620Z,2.40
2019-03-08T20:10:35.187Z,4.22
2019-03-08T20:13:10.324Z,4.80
2019-03-08T20:16:03.068Z,2.87
2019-03-08T20:18:48.455Z,3.30
2019-03-08T20:21:35.662Z,3.22
2019-03-08T20:24:13.524Z,2.83
2019-03-08T20:27:10.513Z,2.83
2019-03-08T20:30:00.298Z,2.87
2019-03-08T20:32:40.561Z,3.92
2019-03-08T20:35:26.334Z,1.98
2019-03-08T20:38:10.563Z,2.58
2019-03-08T20:40:55.668Z,2.50
2019-03-08T20:43:35.205Z,3.10
2019-03-08T20:46:23.575Z,2.78
2019-03-08T20:48:51.746Z,2.60
2019-03-08T20:51:19.807Z,2.40
2019-03-08T20:53:47.819Z,1.65
2019-03-08T20:56:16.798Z,3.03
2019-03-08T20:58:44.929Z,1.77
2019-03-08T21:01:13.414Z,1.95
2019-03-08T21:03:41.785Z,1.90
2019-03-08T21:06:10.202Z,2.78
2019-03-08T21:08:38.538Z,3.70
2019-03-08T21:11:06.288Z,2.80
2019-03-08T21:13:34.870Z,1.95
2019-03-08T21:16:02.925Z,1.70
2019-03-08T21:18:31.154Z,2.00
2019-03-08T21:20:59.360Z,2.40
2019-03-08T21:23:27.157Z,1.52
2019-03-08T21:25:55.737Z,1.37
2019-03-08T21:28:23.821Z,1.83
2019-03-08T21:30:51.898Z,1.90
2019-03-08T21:33:19.971Z,2.92
2019-03-08T21:35:48.122Z,2.00
2019-03-08T21:38:16.216Z,1.90
2019-03-08T21:40:44.681Z,2.35
2019-03-08T21:43:12.735Z,2.67
2019-03-08T21:45:40.842Z,2.12
2019-03-08T21:48:08.921Z,1.73
2019-03-08T21:50:36.966Z,1.70
2019-03-08T21:53:05.050Z,2.30
2019-03-08T21:55:33.548Z,2.35
2019-03-08T21:58:01.573Z,2.30
2019-03-08T22:00:29.688Z,2.67
2019-03-08T22:02:57.787Z,2.15
2019-03-08T22:05:31.205Z,2.30
2019-03-08T22:08:00.809Z,2.22
2019-03-08T22:10:40.126Z,2.95
2019-03-08T22:13:08.267Z,2.92
2019-03-08T22:15:36.315Z,2.87
2019-03-08T22:18:04.916Z,3.30
2019-03-08T22:20:32.459Z,3.25
2019-03-08T22:23:00.309Z,3.28
2019-03-08T22:25:28.178Z,3.53
2019-03-08T22:27:56.247Z,3.40
2019-03-08T22:30:24.336Z,3.50
2019-03-08T22:32:52.429Z,4.05
2019-03-08T22:35:20.552Z,3.28
2019-03-08T22:37:48.666Z,3.55
2019-03-08T22:40:16.992Z,4.18
2019-03-08T22:42:45.101Z,3.28
2019-03-08T22:45:13.270Z,3.42
2019-03-08T22:47:41.367Z,3.35
2019-03-08T22:50:09.866Z,3.42
2019-03-08T22:52:38.107Z,3.58
2019-03-08T22:55:06.879Z,4.20
2019-03-08T22:57:34.956Z,3.83
2019-03-08T23:00:02.836Z,4.07
2019-03-08T23:02:30.913Z,3.42
2019-03-08T23:04:58.997Z,4.12
2019-03-08T23:07:27.134Z,3.53
2019-03-08T23:09:54.968Z,4.70
2019-03-08T23:12:23.702Z,3.65
2019-03-08T23:14:51.775Z,3.72
2019-03-08T23:17:19.691Z,4.05
2019-03-08T23:19:47.512Z,3.85
2019-03-08T23:22:16.143Z,3.25
2019-03-08T23:24:44.651Z,3.80
2019-03-08T23:27:31.481Z,4.05
2019-03-08T23:30:02.313Z,3.20
2019-03-08T23:32:36.836Z,3.58
2019-03-08T23:35:05.129Z,3.45
2019-03-08T23:37:32.956Z,3.50
2019-03-08T23:40:01.079Z,4.18
2019-03-08T23:42:29.244Z,3.70
2019-03-08T23:44:56.730Z,3.05
2019-03-08T23:47:24.837Z,2.92
2019-03-08T23:49:52.701Z,3.53
2019-03-08T23:52:20.879Z,3.87
2019-03-08T23:54:48.942Z,3.12
2019-03-08T23:57:16.775Z,2.50
2019-03-08T23:59:44.927Z,3.70
